createdAt,value
2023-02-09T00:01:47.628Z,11.25
2023-02-09T00:04:14.236Z,9.43
2023-02-09T00:06:40.835Z,9.17
2023-02-09T00:09:07.395Z,9.60
2023-02-09T00:11:52.666Z,9.68
2023-02-09T00:14:22.055Z,9.23
2023-02-09T00:16:49.613Z,8.73
2023-02-09T00:19:20.466Z,8.37
2023-02-09T00:21:49.458Z,9.57
2023-02-09T00:24:18.295Z,10.45
2023-02-09T00:26:45.234Z,8.90
2023-02-09T00:29:14.686Z,10.07
2023-02-09T00:31:43.612Z,9.10
2023-02-09T00:34:10.540Z,9.05
2023-02-09T00:36:37.129Z,10.38
2023-02-09T00:39:03.951Z,8.82
2023-02-09T00:41:49.537Z,8.43
2023-02-09T00:44:16.122Z,10.93
2023-02-09T00:46:42.913Z,8.32
2023-02-09T00:49:09.471Z,8.88
2023-02-09T00:51:36.084Z,9.00
2023-02-09T00:54:03.323Z,9.38
2023-02-09T00:56:32.341Z,8.80
2023-02-09T00:58:58.950Z,9.32
2023-02-09T01:01:25.592Z,9.73
2023-02-09T01:03:52.180Z,9.32
2023-02-09T01:06:18.756Z,9.20
2023-02-09T01:08:50.781Z,9.13
2023-02-09T01:11:18.030Z,10.07
2023-02-09T01:13:47.235Z,9.80
2023-02-09T01:16:16.719Z,9.85
2023-02-09T01:18:44.193Z,8.80
2023-02-09T01:21:14.661Z,9.07
2023-02-09T01:23:41.379Z,9.52
2023-02-09T01:26:12.171Z,9.05
2023-02-09T01:28:39.429Z,9.57
2023-02-09T01:31:18.053Z,9.20
2023-02-09T01:33:49.452Z,11.00
2023-02-09T01:36:18.413Z,8.30
2023-02-09T01:38:47.676Z,9.27
2023-02-09T01:41:17.378Z,9.07
2023-02-09T01:43:57.289Z,8.85
2023-02-09T01:46:28.462Z,8.83
2023-02-09T01:49:19.492Z,10.00
2023-02-09T01:52:05.944Z,9.85
2023-02-09T01:54:40.030Z,9.88
2023-02-09T01:57:13.640Z,10.55
2023-02-09T01:59:45.462Z,9.07
2023-02-09T02:02:15.041Z,10.65
2023-02-09T02:04:46.903Z,10.18
2023-02-09T02:07:25.271Z,10.15
2023-02-09T02:09:55.506Z,9.95
2023-02-09T02:12:25.038Z,9.00
2023-02-09T02:14:51.570Z,9.48
2023-02-09T02:17:36.662Z,8.63
2023-02-09T02:20:34.127Z,9.65
2023-02-09T02:23:10.291Z,9.18
2023-02-09T02:25:42.829Z,9.40
2023-02-09T02:28:18.256Z,9.93
2023-02-09T02:31:16.977Z,9.35
2023-02-09T02:34:01.312Z,8.43
2023-02-09T02:36:55.832Z,9.20
2023-02-09T02:39:41.413Z,8.50
2023-02-09T02:42:36.680Z,8.65
2023-02-09T02:45:21.812Z,8.18
2023-02-09T02:48:20.449Z,10.15
2023-02-09T02:51:00.190Z,8.98
2023-02-09T02:53:32.284Z,10.23
2023-02-09T02:56:23.320Z,9.65
2023-02-09T02:58:52.106Z,9.70
2023-02-09T03:01:25.108Z,8.57
2023-02-09T03:03:56.147Z,9.38
2023-02-09T03:06:25.192Z,9.60
2023-02-09T03:08:59.994Z,9.07
2023-02-09T03:11:37.829Z,10.38
2023-02-09T03:14:27.508Z,9.63
2023-02-09T03:16:59.355Z,9.60
2023-02-09T03:19:52.107Z,11.53
2023-02-09T03:22:36.052Z,10.70
2023-02-09T03:25:26.064Z,8.68
2023-02-09T03:28:18.301Z,9.35
2023-02-09T03:30:49.746Z,9.38
2023-02-09T03:33:29.303Z,9.63
2023-02-09T03:35:59.065Z,10.38
2023-02-09T03:38:26.123Z,10.05
2023-02-09T03:40:53.955Z,9.30
2023-02-09T03:43:42.682Z,11.23
2023-02-09T03:46:10.024Z,9.63
2023-02-09T03:48:36.717Z,10.63
2023-02-09T03:51:06.750Z,10.73
2023-02-09T03:53:36.439Z,10.52
2023-02-09T03:56:09.287Z,9.85
2023-02-09T03:58:36.858Z,10.60
2023-02-09T04:01:10.694Z,10.85
2023-02-09T04:03:39.732Z,9.70
2023-02-09T04:06:06.572Z,9.80
2023-02-09T04:08:35.448Z,11.00
2023-02-09T04:11:01.986Z,10.40
2023-02-09T04:13:37.153Z,10.73
2023-02-09T04:16:06.998Z,10.73
2023-02-09T04:18:33.628Z,8.77
2023-02-09T04:21:00.177Z,9.93
2023-02-09T04:23:26.765Z,9.02
2023-02-09T04:25:55.535Z,9.17
2023-02-09T04:28:22.165Z,10.73
2023-02-09T04:30:55.662Z,10.63
2023-02-09T04:33:23.707Z,10.30
2023-02-09T04:35:53.454Z,11.15
2023-02-09T04:38:21.645Z,9.30
2023-02-09T04:40:50.031Z,9.63
2023-02-09T04:43:17.401Z,11.23
2023-02-09T04:45:46.267Z,11.02
2023-02-09T04:48:20.626Z,10.73
2023-02-09T04:50:48.070Z,9.80
2023-02-09T04:53:17.273Z,11.25
2023-02-09T04:55:47.580Z,10.13
2023-02-09T04:58:35.168Z,10.90
2023-02-09T05:01:04.760Z,10.05
2023-02-09T05:03:33.942Z,10.30
2023-02-09T05:06:03.314Z,11.27
2023-02-09T05:08:30.558Z,11.93
2023-02-09T05:10:57.204Z,11.48
2023-02-09T05:13:27.229Z,12.20
2023-02-09T05:15:56.803Z,13.03
2023-02-09T05:18:24.438Z,12.55
2023-02-09T05:20:51.529Z,12.52
2023-02-09T05:23:18.162Z,10.68
2023-02-09T05:25:45.845Z,10.00
2023-02-09T05:28:15.422Z,10.83
2023-02-09T05:30:45.014Z,11.88
2023-02-09T05:33:11.830Z,11.43
2023-02-09T05:35:41.888Z,10.93
2023-02-09T05:38:08.436Z,10.73
2023-02-09T05:40:35.016Z,11.40
2023-02-09T05:43:03.410Z,11.15
2023-02-09T05:45:32.169Z,11.65
2023-02-09T05:48:03.233Z,11.45
2023-02-09T05:50:29.905Z,11.40
2023-02-09T05:52:59.510Z,10.27
2023-02-09T05:55:26.151Z,11.05
2023-02-09T05:57:55.143Z,10.55
2023-02-09T06:00:22.005Z,11.68
2023-02-09T06:02:50.879Z,10.73
2023-02-09T06:05:17.504Z,10.87
2023-02-09T06:07:47.040Z,11.15
2023-02-09T06:10:13.741Z,10.73
2023-02-09T06:12:41.399Z,11.15
2023-02-09T06:15:08.436Z,11.63
2023-02-09T06:17:34.989Z,9.13
2023-02-09T06:20:01.566Z,10.65
2023-02-09T06:22:29.324Z,11.25
2023-02-09T06:24:55.838Z,12.05
2023-02-09T06:27:24.469Z,11.55
2023-02-09T06:29:50.981Z,10.30
2023-02-09T06:32:17.664Z,12.23
2023-02-09T06:34:47.235Z,10.43
2023-02-09T06:37:16.041Z,10.52
2023-02-09T06:39:42.625Z,12.02
2023-02-09T06:42:11.556Z,11.23
2023-02-09T06:44:38.071Z,11.70
2023-02-09T06:47:09.893Z,12.52
2023-02-09T06:49:38.919Z,11.43
2023-02-09T06:52:08.647Z,11.23
2023-02-09T06:54:37.485Z,12.17
2023-02-09T06:57:08.928Z,10.90
2023-02-09T06:59:40.192Z,12.35
2023-02-09T07:02:06.754Z,11.27
2023-02-09T07:04:33.283Z,12.15
2023-02-09T07:06:59.846Z,12.03
2023-02-09T07:09:26.423Z,12.15
2023-02-09T07:11:57.809Z,12.52
2023-02-09T07:14:29.094Z,10.18
2023-02-09T07:16:55.600Z,11.85
2023-02-09T07:19:25.110Z,11.67
2023-02-09T07:21:56.454Z,12.18
2023-02-09T07:24:25.432Z,12.43
2023-02-09T07:26:59.034Z,12.32
2023-02-09T07:29:30.431Z,12.10
2023-02-09T07:31:57.218Z,11.00
2023-02-09T07:34:28.658Z,11.95
2023-02-09T07:36:57.514Z,12.25
2023-02-09T07:39:26.661Z,11.80
2023-02-09T07:41:55.560Z,11.07
2023-02-09T07:44:22.447Z,12.97
2023-02-09T07:46:49.011Z,12.35
2023-02-09T07:49:15.673Z,11.85
2023-02-09T07:51:44.524Z,12.10
2023-02-09T07:54:18.999Z,11.77
2023-02-09T07:56:45.554Z,12.27
2023-02-09T07:59:14.302Z,11.82
2023-02-09T08:01:45.812Z,11.73
2023-02-09T08:04:12.438Z,13.23
2023-02-09T08:06:43.209Z,12.90
2023-02-09T08:09:13.673Z,13.13
2023-02-09T08:12:15.074Z,13.10
2023-02-09T08:14:48.204Z,12.02
2023-02-09T08:17:21.411Z,11.98
2023-02-09T08:19:56.503Z,13.63
2023-02-09T08:22:25.028Z,12.53
2023-02-09T08:24:54.200Z,12.15
2023-02-09T08:27:28.043Z,15.43
2023-02-09T08:29:54.896Z,13.52
2023-02-09T08:32:21.554Z,15.10
2023-02-09T08:34:51.074Z,14.00
2023-02-09T08:37:17.760Z,13.13
2023-02-09T08:39:46.569Z,13.43
2023-02-09T08:42:13.145Z,13.30
2023-02-09T08:44:39.763Z,14.30
2023-02-09T08:47:06.642Z,14.43
2023-02-09T08:49:35.318Z,13.85
2023-02-09T08:52:01.881Z,14.07
2023-02-09T08:54:28.465Z,13.50
2023-02-09T08:56:55.037Z,13.52
2023-02-09T08:59:22.129Z,13.90
2023-02-09T09:01:51.509Z,13.30
2023-02-09T09:04:25.939Z,13.93
2023-02-09T09:06:55.080Z,14.85
2023-02-09T09:09:21.643Z,14.75
2023-02-09T09:11:50.424Z,14.27
2023-02-09T09:14:19.167Z,14.07
2023-02-09T09:16:47.980Z,13.95
2023-02-09T09:19:17.615Z,14.35
2023-02-09T09:21:44.198Z,15.02
2023-02-09T09:24:10.829Z,15.67
2023-02-09T09:26:37.418Z,14.98
2023-02-09T09:29:04.148Z,15.18
2023-02-09T09:31:33.409Z,13.25
2023-02-09T09:34:04.825Z,13.50
2023-02-09T09:36:31.630Z,14.47
2023-02-09T09:39:00.553Z,14.23
2023-02-09T09:41:36.447Z,13.75
2023-02-09T09:44:12.215Z,14.63
2023-02-09T09:46:42.688Z,15.65
2023-02-09T09:49:21.517Z,14.30
2023-02-09T09:51:54.007Z,13.63
2023-02-09T09:54:27.470Z,14.30
2023-02-09T09:56:54.579Z,15.20
2023-02-09T09:59:30.986Z,14.85
2023-02-09T10:02:01.652Z,13.97
2023-02-09T10:04:28.711Z,14.05
2023-02-09T10:07:10.452Z,14.70
2023-02-09T10:09:51.985Z,14.85
2023-02-09T10:12:30.650Z,14.10
2023-02-09T10:15:01.741Z,13.57
2023-02-09T10:17:30.628Z,14.90
2023-02-09T10:20:09.993Z,13.93
2023-02-09T10:22:36.671Z,13.82
2023-02-09T10:25:50.933Z,14.38
2023-02-09T10:28:23.085Z,15.30
2023-02-09T10:30:57.498Z,14.82
2023-02-09T10:33:24.574Z,13.57
2023-02-09T10:35:54.067Z,13.75
2023-02-09T10:38:24.721Z,14.95
2023-02-09T10:40:51.612Z,13.00
2023-02-09T10:43:36.238Z,14.60
2023-02-09T10:46:10.379Z,15.07
2023-02-09T10:48:42.956Z,13.32
2023-02-09T10:51:29.112Z,14.07
2023-02-09T10:53:55.706Z,14.17
2023-02-09T10:56:27.678Z,15.18
2023-02-09T10:59:04.628Z,13.85
2023-02-09T11:01:42.023Z,13.98
2023-02-09T11:04:20.950Z,13.98
2023-02-09T11:06:54.630Z,15.33
2023-02-09T11:09:30.510Z,14.35
2023-02-09T11:11:57.581Z,14.75
2023-02-09T11:14:24.619Z,13.63
2023-02-09T11:17:09.804Z,16.33
2023-02-09T11:19:42.439Z,16.33
2023-02-09T11:22:21.296Z,15.25
2023-02-09T11:25:00.136Z,15.20
2023-02-09T11:27:54.814Z,14.82
2023-02-09T11:30:30.259Z,15.13
2023-02-09T11:33:06.605Z,14.17
2023-02-09T11:36:02.339Z,15.82
2023-02-09T11:38:40.138Z,14.93
2023-02-09T11:41:32.322Z,14.73
2023-02-09T11:44:02.548Z,15.77
2023-02-09T11:46:33.639Z,15.33
2023-02-09T11:49:08.039Z,14.55
2023-02-09T11:51:39.567Z,15.55
2023-02-09T11:54:16.187Z,14.23
2023-02-09T11:56:50.955Z,14.93
2023-02-09T11:59:40.389Z,16.07
2023-02-09T12:02:06.887Z,14.40
2023-02-09T12:04:48.976Z,14.43
2023-02-09T12:07:28.062Z,15.02
2023-02-09T12:10:15.915Z,13.45
2023-02-09T12:13:08.885Z,14.07
2023-02-09T12:15:50.622Z,14.25
2023-02-09T12:18:28.819Z,14.60
2023-02-09T12:20:57.931Z,14.60
2023-02-09T12:23:30.661Z,12.98
2023-02-09T12:26:12.870Z,14.83
2023-02-09T12:28:44.196Z,14.48
2023-02-09T12:31:27.011Z,13.55
2023-02-09T12:33:59.675Z,13.40
2023-02-09T12:36:34.523Z,13.75
2023-02-09T12:39:23.712Z,13.40
2023-02-09T12:41:52.853Z,14.10
2023-02-09T12:44:21.800Z,13.38
2023-02-09T12:46:55.592Z,13.80
2023-02-09T12:49:28.390Z,14.10
2023-02-09T12:52:11.932Z,13.50
2023-02-09T12:54:52.358Z,14.30
2023-02-09T12:57:19.283Z,14.80
2023-02-09T13:00:00.827Z,14.40
2023-02-09T13:02:49.738Z,13.55
2023-02-09T13:05:26.594Z,13.30
2023-02-09T13:08:11.552Z,13.68
2023-02-09T13:10:59.606Z,13.07
2023-02-09T13:13:32.255Z,13.73
2023-02-09T13:16:04.245Z,13.77
2023-02-09T13:18:55.194Z,13.43
2023-02-09T13:21:31.181Z,12.90
2023-02-09T13:24:10.344Z,13.57
2023-02-09T13:26:49.369Z,12.82
2023-02-09T13:29:21.343Z,14.00
2023-02-09T13:31:58.231Z,13.30
2023-02-09T13:34:45.663Z,12.40
2023-02-09T13:37:27.064Z,13.98
2023-02-09T13:40:00.902Z,13.15
2023-02-09T13:42:32.195Z,12.82
2023-02-09T13:45:01.962Z,12.33
2023-02-09T13:47:28.994Z,12.20
2023-02-09T13:50:01.817Z,13.05
2023-02-09T13:52:40.098Z,12.88
2023-02-09T13:55:24.035Z,12.32
2023-02-09T13:57:59.916Z,11.50
2023-02-09T14:00:45.051Z,12.27
2023-02-09T14:03:34.652Z,12.50
2023-02-09T14:06:27.853Z,11.95
2023-02-09T14:08:59.912Z,12.32
2023-02-09T14:11:43.406Z,12.63
2023-02-09T14:14:18.372Z,12.73
2023-02-09T14:16:53.864Z,13.13
2023-02-09T14:19:31.598Z,14.27
2023-02-09T14:22:00.656Z,12.48
2023-02-09T14:24:40.721Z,13.97
2023-02-09T14:27:23.490Z,12.38
2023-02-09T14:29:53.452Z,12.43
2023-02-09T14:32:42.952Z,14.02
2023-02-09T14:35:26.534Z,12.20
2023-02-09T14:38:00.250Z,13.03
2023-02-09T14:40:29.913Z,13.52
2023-02-09T14:43:00.372Z,13.43
2023-02-09T14:45:29.648Z,12.63
2023-02-09T14:47:56.289Z,12.15
2023-02-09T14:50:26.625Z,12.83
2023-02-09T14:53:06.252Z,13.00
2023-02-09T14:55:40.090Z,12.23
2023-02-09T14:58:25.030Z,12.40
2023-02-09T15:00:54.131Z,12.82
2023-02-09T15:03:25.729Z,13.07
2023-02-09T15:05:58.144Z,12.70
2023-02-09T15:08:27.204Z,11.63
2023-02-09T15:11:28.991Z,12.13
2023-02-09T15:14:04.272Z,12.48
2023-02-09T15:16:34.153Z,11.07
2023-02-09T15:19:00.984Z,12.05
2023-02-09T15:21:27.540Z,11.43
2023-02-09T15:23:54.083Z,13.07
2023-02-09T15:26:26.685Z,11.38
2023-02-09T15:28:55.960Z,11.23
2023-02-09T15:31:28.728Z,12.30
2023-02-09T15:33:57.713Z,11.52
2023-02-09T15:36:26.122Z,12.65
2023-02-09T15:38:54.906Z,11.95
2023-02-09T15:41:40.011Z,11.30
2023-02-09T15:44:39.323Z,11.68
2023-02-09T15:47:24.703Z,11.45
2023-02-09T15:49:55.889Z,11.77
2023-02-09T15:52:22.502Z,11.25
2023-02-09T15:54:54.484Z,12.50
2023-02-09T15:57:27.247Z,11.30
2023-02-09T15:59:53.850Z,11.38
2023-02-09T16:02:23.632Z,11.25
2023-02-09T16:04:50.268Z,10.98
2023-02-09T16:07:23.032Z,11.70
2023-02-09T16:09:52.683Z,11.77
2023-02-09T16:12:19.254Z,10.30
2023-02-09T16:14:45.789Z,10.82
2023-02-09T16:17:14.732Z,9.80
2023-02-09T16:19:41.796Z,10.53
2023-02-09T16:22:10.922Z,9.65
2023-02-09T16:24:41.389Z,9.15
2023-02-09T16:27:16.455Z,8.95
2023-02-09T16:29:43.251Z,9.48
2023-02-09T16:32:16.009Z,9.20
2023-02-09T16:34:45.518Z,9.43
2023-02-09T16:37:16.668Z,9.02
2023-02-09T16:39:43.861Z,8.52
2023-02-09T16:42:14.885Z,8.77
2023-02-09T16:44:43.993Z,8.93
2023-02-09T16:47:19.233Z,9.48
2023-02-09T16:50:01.222Z,9.10
2023-02-09T16:52:30.271Z,9.43
2023-02-09T16:55:00.208Z,8.95
2023-02-09T16:57:28.216Z,9.53
2023-02-09T16:59:57.568Z,9.52
2023-02-09T17:02:50.002Z,8.85
2023-02-09T17:05:27.214Z,9.63
2023-02-09T17:08:01.142Z,8.45
2023-02-09T17:10:31.408Z,8.63
2023-02-09T17:12:58.512Z,9.05
2023-02-09T17:15:31.441Z,9.45
2023-02-09T17:18:05.832Z,9.88
2023-02-09T17:20:40.996Z,9.15
2023-02-09T17:23:13.365Z,8.33
2023-02-09T17:25:43.398Z,9.35
2023-02-09T17:28:10.192Z,8.82
2023-02-09T17:30:37.377Z,10.02
2023-02-09T17:33:07.963Z,8.55
2023-02-09T17:36:13.978Z,10.20
2023-02-09T17:38:31.667Z,9.23
2023-02-09T17:41:04.502Z,9.05
2023-02-09T17:43:33.863Z,8.27
2023-02-09T17:46:00.561Z,8.48
2023-02-09T17:48:27.140Z,10.13
2023-02-09T17:50:58.979Z,9.55
2023-02-09T17:53:32.501Z,9.02
2023-02-09T17:56:02.598Z,9.23
2023-02-09T17:58:34.060Z,8.90
2023-02-09T18:01:00.766Z,14.33
2023-02-09T18:03:29.694Z,9.70
2023-02-09T18:06:01.797Z,9.25
2023-02-09T18:08:33.448Z,9.07
2023-02-09T18:11:02.679Z,9.07
2023-02-09T18:13:29.244Z,9.23
2023-02-09T18:15:55.872Z,8.95
2023-02-09T18:18:24.700Z,9.00
2023-02-09T18:20:51.401Z,10.10
2023-02-09T18:23:23.511Z,9.65
2023-02-09T18:25:50.889Z,9.80
2023-02-09T18:28:17.535Z,9.10
2023-02-09T18:30:47.524Z,9.60
2023-02-09T18:33:16.472Z,10.20
2023-02-09T18:35:44.851Z,10.20
2023-02-09T18:38:14.994Z,10.20
2023-02-09T18:40:41.608Z,10.65
2023-02-09T18:43:10.976Z,9.60
2023-02-09T18:45:39.638Z,9.75
2023-02-09T18:48:08.455Z,10.30
2023-02-09T18:50:35.016Z,9.70
2023-02-09T18:53:03.319Z,8.77
2023-02-09T18:55:32.291Z,8.98
2023-02-09T18:58:00.932Z,8.68
2023-02-09T19:00:27.671Z,7.88
2023-02-09T19:02:57.904Z,8.70
2023-02-09T19:05:27.517Z,8.68
2023-02-09T19:07:57.145Z,8.98
2023-02-09T19:10:27.177Z,9.05
2023-02-09T19:12:54.338Z,9.95
2023-02-09T19:15:22.550Z,8.47
2023-02-09T19:17:49.272Z,9.05
2023-02-09T19:20:23.673Z,10.20
2023-02-09T19:22:51.521Z,9.60
2023-02-09T19:25:26.380Z,8.88
2023-02-09T19:27:56.063Z,9.17
2023-02-09T19:30:27.461Z,10.00
2023-02-09T19:32:55.702Z,9.25
2023-02-09T19:35:25.033Z,9.43
2023-02-09T19:37:56.074Z,9.48
2023-02-09T19:40:36.035Z,9.20
2023-02-09T19:43:06.288Z,9.57
2023-02-09T19:45:37.454Z,9.65
2023-02-09T19:48:06.649Z,9.60
2023-02-09T19:50:33.965Z,10.38
2023-02-09T19:53:02.840Z,11.77
2023-02-09T19:55:31.980Z,10.48
2023-02-09T19:57:59.265Z,9.18
2023-02-09T20:00:28.361Z,11.50
2023-02-09T20:02:55.065Z,11.15
2023-02-09T20:05:24.119Z,10.97
2023-02-09T20:07:52.850Z,11.38
2023-02-09T20:10:19.608Z,9.75
2023-02-09T20:12:46.234Z,10.32
2023-02-09T20:15:15.052Z,9.20
2023-02-09T20:17:42.029Z,10.20
2023-02-09T20:20:09.082Z,11.18
2023-02-09T20:22:40.626Z,10.45
2023-02-09T20:25:07.738Z,11.57
2023-02-09T20:27:34.581Z,9.82
2023-02-09T20:30:08.529Z,9.30
2023-02-09T20:32:37.568Z,9.98
2023-02-09T20:35:07.558Z,9.65
2023-02-09T20:37:34.196Z,9.68
2023-02-09T20:40:01.523Z,10.23
2023-02-09T20:42:48.990Z,9.47
2023-02-09T20:45:36.434Z,10.00
2023-02-09T20:48:04.904Z,9.68
2023-02-09T20:50:33.182Z,10.60
2023-02-09T20:53:02.521Z,9.27
2023-02-09T20:55:31.593Z,9.63
2023-02-09T20:58:00.693Z,10.85
2023-02-09T21:00:29.783Z,10.82
2023-02-09T21:02:56.444Z,9.57
2023-02-09T21:05:27.775Z,10.05
2023-02-09T21:07:55.475Z,9.70
2023-02-09T21:10:22.281Z,10.35
2023-02-09T21:12:48.961Z,10.57
2023-02-09T21:15:15.972Z,10.13
2023-02-09T21:17:51.738Z,9.25
2023-02-09T21:20:18.323Z,11.00
2023-02-09T21:22:47.438Z,10.68
2023-02-09T21:25:16.241Z,10.13
2023-02-09T21:27:42.791Z,9.48
2023-02-09T21:30:09.843Z,9.55
2023-02-09T21:32:39.266Z,9.67
2023-02-09T21:35:10.392Z,9.88
2023-02-09T21:37:38.904Z,8.82
2023-02-09T21:40:06.763Z,10.57
2023-02-09T21:42:35.522Z,10.95
2023-02-09T21:45:02.446Z,10.83
2023-02-09T21:47:31.843Z,11.38
2023-02-09T21:49:58.510Z,10.57
2023-02-09T21:52:25.300Z,11.32
2023-02-09T21:54:54.891Z,10.10
2023-02-09T21:57:21.942Z,10.30
2023-02-09T21:59:48.658Z,9.32
2023-02-09T22:02:17.822Z,11.88
2023-02-09T22:04:45.658Z,11.23
2023-02-09T22:07:13.965Z,10.93
2023-02-09T22:09:40.601Z,11.10
2023-02-09T22:12:07.467Z,10.82
2023-02-09T22:14:36.541Z,9.88
2023-02-09T22:17:03.504Z,8.60
2023-02-09T22:19:30.141Z,9.63
2023-02-09T22:21:59.046Z,10.50
2023-02-09T22:24:28.410Z,10.82
2023-02-09T22:26:54.960Z,11.23
2023-02-09T22:29:24.871Z,10.18
2023-02-09T22:31:51.423Z,11.40
2023-02-09T22:34:22.830Z,10.47
2023-02-09T22:36:55.231Z,9.65
2023-02-09T22:39:22.319Z,11.05
2023-02-09T22:41:51.100Z,10.82
2023-02-09T22:44:18.074Z,11.35
2023-02-09T22:46:45.814Z,10.97
2023-02-09T22:49:19.237Z,10.90
2023-02-09T22:51:47.588Z,11.43
2023-02-09T22:54:16.121Z,10.02
2023-02-09T22:56:45.169Z,11.82
2023-02-09T22:59:15.374Z,11.30
2023-02-09T23:01:42.781Z,10.55
2023-02-09T23:04:09.794Z,11.45
2023-02-09T23:06:36.388Z,10.10
2023-02-09T23:09:07.532Z,11.27
2023-02-09T23:11:37.039Z,9.83
2023-02-09T23:14:09.571Z,10.27
2023-02-09T23:16:38.110Z,11.18
2023-02-09T23:19:07.942Z,11.93
2023-02-09T23:21:40.174Z,11.65
2023-02-09T23:24:10.492Z,11.10
2023-02-09T23:26:40.014Z,10.48
2023-02-09T23:29:09.689Z,11.68
2023-02-09T23:31:36.805Z,10.15
2023-02-09T23:34:05.939Z,10.95
2023-02-09T23:36:34.029Z,11.23
2023-02-09T23:39:04.253Z,10.38
2023-02-09T23:41:34.352Z,9.82
2023-02-09T23:44:05.992Z,11.00
2023-02-09T23:46:32.642Z,10.88
2023-02-09T23:48:59.316Z,11.17
2023-02-09T23:51:29.683Z,11.32
2023-02-09T23:53:59.105Z,11.63
2023-02-09T23:56:29.944Z,11.23
2023-02-09T23:58:56.570Z,10.18
